Flugplatz Friedersdorf

Für EDCF sind keine METAR/TAF Berichte vorhanden.
Es werden die Flugwettermeldungen vom Flugplatz Berlin-Schönefeld International in 21 km Entfernung angezeigt.

Bericht für EDDB

vom 23.08. um 13:50 UTC

Wind 4 kt aus 20°

Sichtweite 10 km oder mehr

gute Sicht, keine Wolken < 5000 ft, keine CB, keine Wettererscheinungen (CAVOK)

Temperatur 28.0°C

Taupunkt 10.0°C

Luftfeuchtigkeit 32%

Luftdruck 1025 hPa

keine wesentliche Wetteränderung innerhalb den nächsten 2 Stunden zu erwarten

EDDB 231350Z 02004KT 310V090 CAVOK 28/10 Q1025 NOSIG

Prognose für EDDB

vom 23.08. um 00:00 UTC

Zwischen 00:00 UTC und 00:00 UTC

Wind 7 kt aus 130°

Sichtweite 10 km oder mehr

keine signifikanten Wettererscheinungen

keine Wolken


Zwischen 00:00 und 00:00 UTC übergehend zu

Wind 4 kt aus 70°

Sichtweite 10 km oder mehr

keine signifikanten Wettererscheinungen

keine Wolken


Am 24.08. zwischen 00:00 und 00:00 UTC übergehend zu

Wind 10 kt aus 80°

Sichtweite 10 km oder mehr

keine signifikanten Wettererscheinungen

keine Wolken

TAF EDDB 231100Z 2312/2412 13007KT CAVOK BECMG 2317/2319 07004KT BECMG 2406/2408 08010KT
Impressum